KLOZ/LOZ METAR and TAF weather

Enter ICAO airport designator
Station Type Date Time Source
KLOZ METAR 2019/02/16 06:53 UTC NOAA

KLOZ 160653Z AUTO 02007KT 7SM -RA BKN008 OVC043 01/01 A2986 RMK AO2 SLP113 P0008 T00110006


Station Type Date Time Source
KLOZ Decoded METAR 2019/02/16 06:53 UTC NOAA

LONDON-CORBIN AIRPORT, KY, United States (KLOZ) 37-05N 084-04W 362M
Feb 16, 2019 - 01:53 AM EST / 2019.02.16 0653 UTC
Wind: from the NNE (020 degrees) at 8 MPH (7 KT):0
Visibility: 7 mile(s):0
Sky conditions: overcast
Weather: light rain
Precipitation last hour: 0.08 inches
Temperature: 34.0 F (1.1 C)
Windchill: 26 F (-3 C):1
Dew Point: 33.1 F (0.6 C)
Relative Humidity: 96%
Pressure (altimeter): 29.86 in. Hg (1011 hPa)
ob: KLOZ 160653Z AUTO 02007KT 7SM -RA BKN008 OVC043 01/01 A2986 RMK AO2 SLP113 P0008 T00110006
cycle: 7

Station Type Date Time Source
KLOZ TAF 2019/02/16 06:39 UTC NOAA

TAF KLOZ 160536Z 1606/1706 03005KT P6SM -RA OVC050
FM160900 03008KT 4SM -SN OVC025
FM161100 03008KT P6SM OVC040
FM161800 04006KT P6SM SCT110


Example: see airport list